sensor_id;sensor_type;location;lat;lon;timestamp;pressure;altitude;pressure_sealevel;temperature;humidity
11198;BME280;5655;48.744;9.162;2023-02-02T00:01:07;96714.34;;;6.10;100.00
11198;BME280;5655;48.744;9.162;2023-02-02T00:03:33;96707.88;;;5.99;100.00
11198;BME280;5655;48.744;9.162;2023-02-02T00:05:59;96713.34;;;6.02;100.00
11198;BME280;5655;48.744;9.162;2023-02-02T00:08:24;96715.34;;;6.05;100.00
11198;BME280;5655;48.744;9.162;2023-02-02T00:10:52;96708.91;;;6.27;100.00
11198;BME280;5655;48.744;9.162;2023-02-02T00:13:18;96701.97;;;6.14;100.00
11198;BME280;5655;48.744;9.162;2023-02-02T00:15:43;96711.25;;;6.08;100.00
11198;BME280;5655;48.744;9.162;2023-02-02T00:18:09;96703.28;;;6.08;100.00
11198;BME280;5655;48.744;9.162;2023-02-02T00:20:34;96699.19;;;5.89;100.00
11198;BME280;5655;48.744;9.162;2023-02-02T00:23:00;96695.31;;;6.08;100.00
11198;BME280;5655;48.744;9.162;2023-02-02T00:25:26;96703.84;;;5.92;100.00
11198;BME280;5655;48.744;9.162;2023-02-02T00:27:51;96701.19;;;5.92;100.00
11198;BME280;5655;48.744;9.162;2023-02-02T00:30:17;96702.03;;;6.05;100.00
11198;BME280;5655;48.744;9.162;2023-02-02T00:32:42;96710.28;;;6.12;100.00
11198;BME280;5655;48.744;9.162;2023-02-02T00:35:08;96710.47;;;6.07;100.00
11198;BME280;5655;48.744;9.162;2023-02-02T00:37:34;96714.81;;;6.12;100.00
11198;BME280;5655;48.744;9.162;2023-02-02T00:40:00;96718.03;;;6.17;100.00
11198;BME280;5655;48.744;9.162;2023-02-02T00:42:25;96708.50;;;6.37;100.00
11198;BME280;5655;48.744;9.162;2023-02-02T00:44:50;96716.69;;;6.32;100.00
11198;BME280;5655;48.744;9.162;2023-02-02T00:47:34;96711.06;;;6.33;100.00
11198;BME280;5655;48.744;9.162;2023-02-02T00:50:00;96698.94;;;6.24;100.00
11198;BME280;5655;48.744;9.162;2023-02-02T00:52:25;96695.44;;;6.11;100.00
11198;BME280;5655;48.744;9.162;2023-02-02T00:54:50;96702.03;;;6.26;100.00
11198;BME280;5655;48.744;9.162;2023-02-02T00:57:16;96698.28;;;6.27;100.00
11198;BME280;5655;48.744;9.162;2023-02-02T00:59:41;96716.69;;;6.32;100.00
11198;BME280;5655;48.744;9.162;2023-02-02T01:02:09;96707.66;;;6.45;100.00
11198;BME280;5655;48.744;9.162;2023-02-02T01:04:35;96700.47;;;6.46;100.00
11198;BME280;5655;48.744;9.162;2023-02-02T01:07:00;96697.22;;;6.40;100.00
11198;BME280;5655;48.744;9.162;2023-02-02T01:09:26;96694.75;;;6.35;100.00
11198;BME280;5655;48.744;9.162;2023-02-02T01:11:51;96698.13;;;6.44;100.00
11198;BME280;5655;48.744;9.162;2023-02-02T01:14:16;96705.38;;;6.35;100.00
11198;BME280;5655;48.744;9.162;2023-02-02T01:16:41;96705.38;;;6.35;100.00
11198;BME280;5655;48.744;9.162;2023-02-02T01:19:10;96702.34;;;6.45;100.00
11198;BME280;5655;48.744;9.162;2023-02-02T01:21:36;96703.19;;;6.37;100.00
11198;BME280;5655;48.744;9.162;2023-02-02T01:24:04;96711.41;;;6.44;100.00
11198;BME280;5655;48.744;9.162;2023-02-02T01:26:30;96709.50;;;6.32;100.00
11198;BME280;5655;48.744;9.162;2023-02-02T01:28:55;96721.41;;;6.26;100.00
11198;BME280;5655;48.744;9.162;2023-02-02T01:31:20;96725.75;;;6.31;100.00
11198;BME280;5655;48.744;9.162;2023-02-02T01:33:47;96725.88;;;6.34;100.00
11198;BME280;5655;48.744;9.162;2023-02-02T01:36:18;96722.25;;;6.39;100.00
11198;BME280;5655;48.744;9.162;2023-02-02T01:38:44;96710.47;;;6.28;100.00
11198;BME280;5655;48.744;9.162;2023-02-02T01:41:13;96706.44;;;6.43;100.00
11198;BME280;5655;48.744;9.162;2023-02-02T01:46:18;96702.13;;;6.50;100.00
11198;BME280;5655;48.744;9.162;2023-02-02T01:54:05;96721.41;;;6.26;100.00
11198;BME280;5655;48.744;9.162;2023-02-02T01:56:38;96709.81;;;6.31;100.00
11198;BME280;5655;48.744;9.162;2023-02-02T01:59:05;96705.16;;;6.07;100.00
11198;BME280;5655;48.744;9.162;2023-02-02T02:01:31;96699.13;;;5.98;100.00
11198;BME280;5655;48.744;9.162;2023-02-02T02:03:57;96699.06;;;6.07;100.00
11198;BME280;5655;48.744;9.162;2023-02-02T02:06:22;96699.00;;;6.15;100.00
11198;BME280;5655;48.744;9.162;2023-02-02T02:08:56;96716.22;;;6.09;100.00
11198;BME280;5655;48.744;9.162;2023-02-02T02:11:24;96713.06;;;6.16;100.00
11198;BME280;5655;48.744;9.162;2023-02-02T02:13:51;96710.31;;;6.45;100.00
11198;BME280;5655;48.744;9.162;2023-02-02T02:36:58;96712.34;;;6.60;100.00
11198;BME280;5655;48.744;9.162;2023-02-02T02:39:36;96714.59;;;6.70;100.00
11198;BME280;5655;48.744;9.162;2023-02-02T02:42:09;96718.31;;;6.57;100.00
11198;BME280;5655;48.744;9.162;2023-02-02T02:44:40;96698.13;;;6.44;100.00
11198;BME280;5655;48.744;9.162;2023-02-02T02:47:16;96715.63;;;6.45;100.00
11198;BME280;5655;48.744;9.162;2023-02-02T02:49:44;96702.13;;;6.50;100.00
11198;BME280;5655;48.744;9.162;2023-02-02T02:52:10;96707.44;;;6.50;100.00
11198;BME280;5655;48.744;9.162;2023-02-02T02:54:43;96705.69;;;6.54;100.00
11198;BME280;5655;48.744;9.162;2023-02-02T02:57:37;96703.28;;;6.61;100.00
11198;BME280;5655;48.744;9.162;2023-02-02T03:03:15;96699.72;;;6.57;100.00
11198;BME280;5655;48.744;9.162;2023-02-02T03:08:45;96698.50;;;6.55;100.00
11198;BME280;5655;48.744;9.162;2023-02-02T03:11:15;96695.50;;;6.56;100.00
11198;BME280;5655;48.744;9.162;2023-02-02T03:13:42;96704.34;;;6.48;100.00
11198;BME280;5655;48.744;9.162;2023-02-02T03:16:09;96705.00;;;6.45;100.00
11198;BME280;5655;48.744;9.162;2023-02-02T03:18:35;96710.19;;;6.42;100.00
11198;BME280;5655;48.744;9.162;2023-02-02T03:21:00;96700.72;;;6.32;100.00
11198;BME280;5655;48.744;9.162;2023-02-02T03:23:26;96704.22;;;6.45;100.00
11198;BME280;5655;48.744;9.162;2023-02-02T03:25:53;96710.19;;;6.42;100.00
11198;BME280;5655;48.744;9.162;2023-02-02T03:28:18;96700.63;;;6.28;100.00
11198;BME280;5655;48.744;9.162;2023-02-02T03:30:46;96699.00;;;6.48;100.00
11198;BME280;5655;48.744;9.162;2023-02-02T03:33:14;96703.34;;;6.53;100.00
11198;BME280;5655;48.744;9.162;2023-02-02T03:35:40;96704.41;;;6.39;100.00
11198;BME280;5655;48.744;9.162;2023-02-02T03:38:06;96707.59;;;6.33;100.00
11198;BME280;5655;48.744;9.162;2023-02-02T03:40:31;96695.06;;;6.54;100.00
11198;BME280;5655;48.744;9.162;2023-02-02T03:42:59;96697.50;;;6.59;100.00
11198;BME280;5655;48.744;9.162;2023-02-02T03:45:28;96694.84;;;6.59;100.00
11198;BME280;5655;48.744;9.162;2023-02-02T03:47:54;96689.19;;;6.28;100.00
11198;BME280;5655;48.744;9.162;2023-02-02T03:50:19;96682.16;;;6.44;100.00
11198;BME280;5655;48.744;9.162;2023-02-02T03:52:45;96699.44;;;6.38;100.00
11198;BME280;5655;48.744;9.162;2023-02-02T03:55:10;96700.19;;;6.38;100.00
11198;BME280;5655;48.744;9.162;2023-02-02T03:57:35;96693.75;;;6.27;100.00
11198;BME280;5655;48.744;9.162;2023-02-02T04:00:01;96693.41;;;6.29;100.00
11198;BME280;5655;48.744;9.162;2023-02-02T04:02:26;96698.81;;;6.20;100.00
11198;BME280;5655;48.744;9.162;2023-02-02T04:04:51;96698.16;;;6.56;100.00
11198;BME280;5655;48.744;9.162;2023-02-02T04:07:17;96718.88;;;6.51;100.00
11198;BME280;5655;48.744;9.162;2023-02-02T04:09:42;96720.72;;;6.38;100.00
11198;BME280;5655;48.744;9.162;2023-02-02T04:12:07;96714.56;;;6.58;100.00
11198;BME280;5655;48.744;9.162;2023-02-02T04:14:32;96722.38;;;6.43;100.00
11198;BME280;5655;48.744;9.162;2023-02-02T04:16:58;96724.28;;;6.42;100.00
11198;BME280;5655;48.744;9.162;2023-02-02T04:19:23;96729.00;;;6.36;100.00
11198;BME280;5655;48.744;9.162;2023-02-02T04:21:48;96727.16;;;6.49;100.00
11198;BME280;5655;48.744;9.162;2023-02-02T04:24:16;96733.16;;;6.46;100.00
11198;BME280;5655;48.744;9.162;2023-02-02T04:26:44;96727.91;;;6.70;100.00
11198;BME280;5655;48.744;9.162;2023-02-02T04:29:10;96730.81;;;6.45;100.00
11198;BME280;5655;48.744;9.162;2023-02-02T04:31:35;96736.00;;;6.41;100.00
11198;BME280;5655;48.744;9.162;2023-02-02T04:34:01;96733.84;;;6.55;100.00
11198;BME280;5655;48.744;9.162;2023-02-02T04:36:26;96733.63;;;6.60;100.00
11198;BME280;5655;48.744;9.162;2023-02-02T04:38:52;96732.72;;;6.56;100.00
11198;BME280;5655;48.744;9.162;2023-02-02T04:41:18;96737.59;;;6.54;100.00
11198;BME280;5655;48.744;9.162;2023-02-02T04:43:43;96738.19;;;6.39;100.00
11198;BME280;5655;48.744;9.162;2023-02-02T04:46:09;96731.19;;;6.55;100.00
11198;BME280;5655;48.744;9.162;2023-02-02T04:48:35;96729.38;;;6.47;100.00
11198;BME280;5655;48.744;9.162;2023-02-02T04:51:01;96740.16;;;6.51;100.00
11198;BME280;5655;48.744;9.162;2023-02-02T04:53:28;96741.34;;;6.53;100.00
11198;BME280;5655;48.744;9.162;2023-02-02T04:55:53;96736.06;;;6.65;100.00
11198;BME280;5655;48.744;9.162;2023-02-02T04:58:19;96739.63;;;6.36;100.00
11198;BME280;5655;48.744;9.162;2023-02-02T05:00:44;96752.25;;;6.39;100.00
11198;BME280;5655;48.744;9.162;2023-02-02T05:03:09;96757.94;;;6.38;100.00
11198;BME280;5655;48.744;9.162;2023-02-02T05:05:37;96752.78;;;6.54;100.00
11198;BME280;5655;48.744;9.162;2023-02-02T05:08:03;96750.38;;;6.40;100.00
11198;BME280;5655;48.744;9.162;2023-02-02T05:10:28;96753.88;;;6.53;100.00
11198;BME280;5655;48.744;9.162;2023-02-02T05:12:54;96750.13;;;6.54;100.00
11198;BME280;5655;48.744;9.162;2023-02-02T05:15:20;96752.53;;;6.47;100.00
11198;BME280;5655;48.744;9.162;2023-02-02T05:17:46;96767.94;;;6.53;100.00
11198;BME280;5655;48.744;9.162;2023-02-02T05:20:12;96771.28;;;6.50;100.00
11198;BME280;5655;48.744;9.162;2023-02-02T05:22:37;96771.97;;;6.59;100.00
11198;BME280;5655;48.744;9.162;2023-02-02T05:25:04;96769.94;;;6.77;100.00
11198;BME280;5655;48.744;9.162;2023-02-02T05:27:30;96765.75;;;6.55;100.00
11198;BME280;5655;48.744;9.162;2023-02-02T05:29:55;96770.50;;;6.50;100.00
11198;BME280;5655;48.744;9.162;2023-02-02T05:32:20;96782.81;;;6.54;100.00
11198;BME280;5655;48.744;9.162;2023-02-02T05:34:46;96788.63;;;6.68;100.00
11198;BME280;5655;48.744;9.162;2023-02-02T05:37:11;96786.03;;;6.80;100.00
11198;BME280;5655;48.744;9.162;2023-02-02T05:39:36;96795.41;;;6.78;100.00
11198;BME280;5655;48.744;9.162;2023-02-02T05:42:01;96791.88;;;6.53;100.00
11198;BME280;5655;48.744;9.162;2023-02-02T05:44:27;96784.63;;;6.62;100.00
11198;BME280;5655;48.744;9.162;2023-02-02T05:46:52;96775.94;;;6.53;100.00
11198;BME280;5655;48.744;9.162;2023-02-02T05:49:17;96781.72;;;6.55;100.00
11198;BME280;5655;48.744;9.162;2023-02-02T05:51:46;96784.84;;;6.69;100.00
11198;BME280;5655;48.744;9.162;2023-02-02T05:54:12;96785.41;;;6.63;100.00
11198;BME280;5655;48.744;9.162;2023-02-02T05:56:41;96789.88;;;6.50;100.00
11198;BME280;5655;48.744;9.162;2023-02-02T05:59:06;96792.13;;;6.60;100.00
11198;BME280;5655;48.744;9.162;2023-02-02T06:01:32;96790.06;;;6.66;100.00
11198;BME280;5655;48.744;9.162;2023-02-02T06:04:00;96784.06;;;6.90;100.00
11198;BME280;5655;48.744;9.162;2023-02-02T06:06:26;96787.97;;;6.71;100.00
11198;BME280;5655;48.744;9.162;2023-02-02T06:08:51;96775.81;;;6.50;100.00
11198;BME280;5655;48.744;9.162;2023-02-02T06:11:17;96772.69;;;6.68;100.00
11198;BME280;5655;48.744;9.162;2023-02-02T06:13:43;96783.44;;;6.72;100.00
11198;BME280;5655;48.744;9.162;2023-02-02T06:16:08;96781.97;;;6.62;100.00
11198;BME280;5655;48.744;9.162;2023-02-02T06:18:35;96768.13;;;6.69;100.00
11198;BME280;5655;48.744;9.162;2023-02-02T06:21:03;96774.69;;;6.71;100.00
11198;BME280;5655;48.744;9.162;2023-02-02T06:23:30;96786.97;;;6.64;100.00
11198;BME280;5655;48.744;9.162;2023-02-02T06:25:56;96786.97;;;6.64;100.00
11198;BME280;5655;48.744;9.162;2023-02-02T06:28:21;96797.97;;;6.74;100.00
11198;BME280;5655;48.744;9.162;2023-02-02T06:30:46;96795.72;;;6.64;100.00
11198;BME280;5655;48.744;9.162;2023-02-02T06:33:21;96797.78;;;6.92;100.00
11198;BME280;5655;48.744;9.162;2023-02-02T06:35:46;96802.19;;;6.75;100.00
11198;BME280;5655;48.744;9.162;2023-02-02T06:38:11;96811.06;;;6.79;100.00
11198;BME280;5655;48.744;9.162;2023-02-02T06:40:36;96801.72;;;6.73;100.00
11198;BME280;5655;48.744;9.162;2023-02-02T06:43:02;96802.38;;;6.70;100.00
11198;BME280;5655;48.744;9.162;2023-02-02T06:45:29;96798.97;;;6.82;100.00
11198;BME280;5655;48.744;9.162;2023-02-02T06:47:58;96802.47;;;6.95;100.00
11198;BME280;5655;48.744;9.162;2023-02-02T06:50:27;96807.69;;;6.70;100.00
11198;BME280;5655;48.744;9.162;2023-02-02T06:52:52;96817.09;;;6.89;100.00
11198;BME280;5655;48.744;9.162;2023-02-02T06:55:18;96814.38;;;6.76;100.00
11198;BME280;5655;48.744;9.162;2023-02-02T06:57:44;96810.03;;;6.72;100.00
11198;BME280;5655;48.744;9.162;2023-02-02T07:00:10;96809.25;;;6.71;100.00
11198;BME280;5655;48.744;9.162;2023-02-02T07:02:36;96827.03;;;6.79;100.00
11198;BME280;5655;48.744;9.162;2023-02-02T07:05:01;96823.50;;;6.88;100.00
11198;BME280;5655;48.744;9.162;2023-02-02T07:07:31;96831.13;;;7.10;100.00
11198;BME280;5655;48.744;9.162;2023-02-02T07:09:56;96822.75;;;6.99;100.00
11198;BME280;5655;48.744;9.162;2023-02-02T07:12:22;96825.97;;;6.93;100.00
11198;BME280;5655;48.744;9.162;2023-02-02T07:14:48;96823.00;;;6.73;100.00
11198;BME280;5655;48.744;9.162;2023-02-02T07:17:14;96822.91;;;6.82;100.00
11198;BME280;5655;48.744;9.162;2023-02-02T07:19:39;96819.91;;;6.71;100.00
11198;BME280;5655;48.744;9.162;2023-02-02T07:22:04;96826.13;;;6.75;100.00
11198;BME280;5655;48.744;9.162;2023-02-02T07:24:30;96815.88;;;6.65;100.00
11198;BME280;5655;48.744;9.162;2023-02-02T07:26:55;96814.31;;;6.85;100.00
11198;BME280;5655;48.744;9.162;2023-02-02T07:29:22;96813.13;;;6.74;100.00
11198;BME280;5655;48.744;9.162;2023-02-02T07:31:47;96824.16;;;6.84;100.00
11198;BME280;5655;48.744;9.162;2023-02-02T07:34:12;96834.41;;;6.74;100.00
11198;BME280;5655;48.744;9.162;2023-02-02T07:36:38;96831.63;;;6.70;100.00
11198;BME280;5655;48.744;9.162;2023-02-02T07:39:03;96839.81;;;6.65;100.00
11198;BME280;5655;48.744;9.162;2023-02-02T07:41:29;96842.28;;;6.70;100.00
11198;BME280;5655;48.744;9.162;2023-02-02T07:43:55;96841.63;;;6.73;100.00
11198;BME280;5655;48.744;9.162;2023-02-02T07:46:21;96841.06;;;6.68;100.00
11198;BME280;5655;48.744;9.162;2023-02-02T07:48:46;96848.56;;;6.87;100.00
11198;BME280;5655;48.744;9.162;2023-02-02T07:51:14;96841.03;;;6.89;100.00
11198;BME280;5655;48.744;9.162;2023-02-02T07:53:45;96833.25;;;6.83;100.00
11198;BME280;5655;48.744;9.162;2023-02-02T07:58:41;96837.56;;;7.09;100.00
11198;BME280;5655;48.744;9.162;2023-02-02T08:01:08;96830.00;;;6.99;100.00
11198;BME280;5655;48.744;9.162;2023-02-02T08:03:35;96822.84;;;6.91;100.00
11198;BME280;5655;48.744;9.162;2023-02-02T08:06:08;96821.78;;;7.04;100.00
11198;BME280;5655;48.744;9.162;2023-02-02T08:08:33;96831.72;;;7.15;100.00
11198;BME280;5655;48.744;9.162;2023-02-02T08:10:59;96831.31;;;7.05;100.00
11198;BME280;5655;48.744;9.162;2023-02-02T08:13:24;96833.31;;;7.08;100.00
11198;BME280;5655;48.744;9.162;2023-02-02T08:15:49;96819.50;;;6.81;100.00
11198;BME280;5655;48.744;9.162;2023-02-02T08:18:15;96826.16;;;6.88;100.00
11198;BME280;5655;48.744;9.162;2023-02-02T08:20:41;96828.00;;;7.08;100.00
11198;BME280;5655;48.744;9.162;2023-02-02T08:23:06;96837.81;;;7.16;100.00
11198;BME280;5655;48.744;9.162;2023-02-02T08:25:37;96854.88;;;7.15;100.00
11198;BME280;5655;48.744;9.162;2023-02-02T08:28:03;96867.50;;;7.06;100.00
11198;BME280;5655;48.744;9.162;2023-02-02T08:30:30;96883.97;;;7.20;100.00
11198;BME280;5655;48.744;9.162;2023-02-02T08:32:55;96873.78;;;7.34;100.00
11198;BME280;5655;48.744;9.162;2023-02-02T08:35:20;96883.25;;;7.44;100.00
11198;BME280;5655;48.744;9.162;2023-02-02T08:37:47;96893.22;;;7.47;100.00
11198;BME280;5655;48.744;9.162;2023-02-02T08:40:13;96889.41;;;7.68;100.00
11198;BME280;5655;48.744;9.162;2023-02-02T08:42:38;96895.09;;;7.34;100.00
11198;BME280;5655;48.744;9.162;2023-02-02T08:45:04;96899.16;;;7.64;100.00
11198;BME280;5655;48.744;9.162;2023-02-02T08:47:30;96889.34;;;7.44;100.00
11198;BME280;5655;48.744;9.162;2023-02-02T08:49:55;96893.28;;;7.26;100.00
11198;BME280;5655;48.744;9.162;2023-02-02T08:52:20;96894.38;;;7.25;100.00
11198;BME280;5655;48.744;9.162;2023-02-02T08:54:46;96899.25;;;7.56;100.00
11198;BME280;5655;48.744;9.162;2023-02-02T08:57:11;96905.75;;;7.34;100.00
11198;BME280;5655;48.744;9.162;2023-02-02T08:59:36;96912.81;;;7.30;100.00
11198;BME280;5655;48.744;9.162;2023-02-02T09:02:02;96920.69;;;7.59;100.00
11198;BME280;5655;48.744;9.162;2023-02-02T09:04:27;96926.25;;;7.54;100.00
11198;BME280;5655;48.744;9.162;2023-02-02T09:06:52;96921.50;;;7.39;100.00
11198;BME280;5655;48.744;9.162;2023-02-02T09:09:18;96918.41;;;7.37;100.00
11198;BME280;5655;48.744;9.162;2023-02-02T09:11:44;96934.66;;;7.56;100.00
11198;BME280;5655;48.744;9.162;2023-02-02T09:14:11;96929.06;;;7.82;100.00
11198;BME280;5655;48.744;9.162;2023-02-02T09:16:37;96936.81;;;7.42;100.00
11198;BME280;5655;48.744;9.162;2023-02-02T09:19:02;96937.97;;;7.41;100.00
11198;BME280;5655;48.744;9.162;2023-02-02T09:21:28;96935.44;;;7.57;100.00
11198;BME280;5655;48.744;9.162;2023-02-02T09:23:53;96930.13;;;7.57;100.00
11198;BME280;5655;48.744;9.162;2023-02-02T09:26:23;96926.34;;;7.58;100.00
11198;BME280;5655;48.744;9.162;2023-02-02T09:29:01;96925.34;;;7.50;100.00
11198;BME280;5655;48.744;9.162;2023-02-02T09:31:28;96934.03;;;7.39;100.00
11198;BME280;5655;48.744;9.162;2023-02-02T09:33:53;96930.41;;;7.43;100.00
11198;BME280;5655;48.744;9.162;2023-02-02T09:36:21;96929.44;;;7.60;100.00
11198;BME280;5655;48.744;9.162;2023-02-02T09:38:47;96933.25;;;7.38;100.00
11198;BME280;5655;48.744;9.162;2023-02-02T09:41:37;96938.13;;;7.69;100.00
11198;BME280;5655;48.744;9.162;2023-02-02T09:47:24;96945.84;;;7.95;100.00
11198;BME280;5655;48.744;9.162;2023-02-02T09:50:27;96954.03;;;7.78;100.00
11198;BME280;5655;48.744;9.162;2023-02-02T09:53:03;96953.31;;;7.56;100.00
11198;BME280;5655;48.744;9.162;2023-02-02T09:55:37;96948.78;;;7.69;100.00
11198;BME280;5655;48.744;9.162;2023-02-02T10:01:12;96940.00;;;7.56;100.00
11198;BME280;5655;48.744;9.162;2023-02-02T10:06:32;96956.25;;;7.63;100.00
11198;BME280;5655;48.744;9.162;2023-02-02T10:09:27;96952.00;;;7.62;100.00
11198;BME280;5655;48.744;9.162;2023-02-02T10:17:45;96945.78;;;7.58;100.00
11198;BME280;5655;48.744;9.162;2023-02-02T10:20:14;96964.16;;;7.51;100.00
11198;BME280;5655;48.744;9.162;2023-02-02T10:22:43;96960.72;;;7.51;100.00
11198;BME280;5655;48.744;9.162;2023-02-02T10:25:14;96960.91;;;7.66;100.00
11198;BME280;5655;48.744;9.162;2023-02-02T10:28:05;96962.19;;;7.60;100.00
11198;BME280;5655;48.744;9.162;2023-02-02T10:30:54;96962.00;;;7.65;100.00
11198;BME280;5655;48.744;9.162;2023-02-02T10:33:37;96960.81;;;7.75;100.00
11198;BME280;5655;48.744;9.162;2023-02-02T10:38:36;96970.53;;;7.38;100.00
11198;BME280;5655;48.744;9.162;2023-02-02T10:41:25;96966.56;;;7.77;100.00
11198;BME280;5655;48.744;9.162;2023-02-02T10:46:44;96980.84;;;7.93;100.00
11198;BME280;5655;48.744;9.162;2023-02-02T10:49:25;96977.13;;;7.73;100.00
11198;BME280;5655;48.744;9.162;2023-02-02T10:52:01;96977.41;;;7.60;100.00
11198;BME280;5655;48.744;9.162;2023-02-02T10:57:37;96969.50;;;7.51;100.00
11198;BME280;5655;48.744;9.162;2023-02-02T11:00:09;96965.22;;;7.38;100.00
11198;BME280;5655;48.744;9.162;2023-02-02T11:02:39;96960.69;;;7.18;100.00
11198;BME280;5655;48.744;9.162;2023-02-02T11:05:05;96962.78;;;7.33;100.00
11198;BME280;5655;48.744;9.162;2023-02-02T11:07:52;96967.28;;;7.53;100.00
11198;BME280;5655;48.744;9.162;2023-02-02T11:10:17;96959.25;;;7.41;100.00
11198;BME280;5655;48.744;9.162;2023-02-02T11:12:44;96964.81;;;7.48;100.00
11198;BME280;5655;48.744;9.162;2023-02-02T11:15:26;96962.47;;;7.67;100.00
11198;BME280;5655;48.744;9.162;2023-02-02T11:17:51;96960.03;;;7.21;100.00
11198;BME280;5655;48.744;9.162;2023-02-02T11:20:24;96964.66;;;7.65;100.00
11198;BME280;5655;48.744;9.162;2023-02-02T11:23:02;96956.88;;;7.60;100.00
11198;BME280;5655;48.744;9.162;2023-02-02T11:25:36;96961.59;;;7.75;100.00
11198;BME280;5655;48.744;9.162;2023-02-02T11:28:12;96963.56;;;7.66;100.00
11198;BME280;5655;48.744;9.162;2023-02-02T11:30:46;96965.16;;;7.80;100.00
11198;BME280;5655;48.744;9.162;2023-02-02T11:33:29;96958.38;;;7.82;100.00
11198;BME280;5655;48.744;9.162;2023-02-02T11:35:58;96962.59;;;7.71;100.00
11198;BME280;5655;48.744;9.162;2023-02-02T11:38:24;96949.50;;;7.45;100.00
11198;BME280;5655;48.744;9.162;2023-02-02T11:41:02;96936.75;;;7.96;100.00
11198;BME280;5655;48.744;9.162;2023-02-02T11:46:18;96960.41;;;7.52;100.00
11198;BME280;5655;48.744;9.162;2023-02-02T11:48:51;96945.66;;;7.55;100.00
11198;BME280;5655;48.744;9.162;2023-02-02T11:51:25;96957.13;;;7.67;100.00
11198;BME280;5655;48.744;9.162;2023-02-02T11:54:04;96953.13;;;7.61;100.00
11198;BME280;5655;48.744;9.162;2023-02-02T11:56:34;96946.19;;;7.48;100.00
11198;BME280;5655;48.744;9.162;2023-02-02T11:59:00;96947.03;;;7.40;100.00
11198;BME280;5655;48.744;9.162;2023-02-02T12:01:36;96948.50;;;7.83;100.00
11198;BME280;5655;48.744;9.162;2023-02-02T12:06:42;96939.22;;;7.23;100.00
11198;BME280;5655;48.744;9.162;2023-02-02T12:09:13;96948.50;;;7.38;100.00
11198;BME280;5655;48.744;9.162;2023-02-02T12:17:36;96940.81;;;7.36;100.00
11198;BME280;5655;48.744;9.162;2023-02-02T12:22:51;96937.97;;;7.41;100.00
11198;BME280;5655;48.744;9.162;2023-02-02T12:25:45;96939.09;;;7.52;100.00
11198;BME280;5655;48.744;9.162;2023-02-02T12:36:42;96942.25;;;7.13;100.00
11198;BME280;5655;48.744;9.162;2023-02-02T12:39:32;96939.28;;;6.94;100.00
11198;BME280;5655;48.744;9.162;2023-02-02T12:42:20;96938.59;;;7.38;100.00
11198;BME280;5655;48.744;9.162;2023-02-02T12:45:00;96927.47;;;7.24;100.00
11198;BME280;5655;48.744;9.162;2023-02-02T12:47:31;96928.13;;;6.79;100.00
11198;BME280;5655;48.744;9.162;2023-02-02T12:52:47;96929.03;;;7.04;100.00
11198;BME280;5655;48.744;9.162;2023-02-02T12:55:38;96937.06;;;7.37;100.00
11198;BME280;5655;48.744;9.162;2023-02-02T13:00:52;96925.28;;;6.84;100.00
11198;BME280;5655;48.744;9.162;2023-02-02T13:03:40;96933.41;;;7.21;100.00
11198;BME280;5655;48.744;9.162;2023-02-02T13:06:19;96935.13;;;6.84;100.00
11198;BME280;5655;48.744;9.162;2023-02-02T13:08:52;96935.13;;;6.63;100.00
11198;BME280;5655;48.744;9.162;2023-02-02T13:11:29;96933.78;;;6.99;100.00
11198;BME280;5655;48.744;9.162;2023-02-02T13:14:06;96935.13;;;7.05;100.00
11198;BME280;5655;48.744;9.162;2023-02-02T13:16:35;96936.69;;;7.06;100.00
11198;BME280;5655;48.744;9.162;2023-02-02T13:19:05;96930.47;;;7.02;100.00
11198;BME280;5655;48.744;9.162;2023-02-02T13:21:35;96940.97;;;6.98;100.00
11198;BME280;5655;48.744;9.162;2023-02-02T13:24:04;96952.06;;;7.00;100.00
11198;BME280;5655;48.744;9.162;2023-02-02T13:26:37;96938.44;;;7.02;100.00
11198;BME280;5655;48.744;9.162;2023-02-02T13:31:42;96953.81;;;7.38;100.00
11198;BME280;5655;48.744;9.162;2023-02-02T13:34:37;96952.00;;;7.09;100.00
11198;BME280;5655;48.744;9.162;2023-02-02T13:37:27;96957.06;;;7.22;100.00
11198;BME280;5655;48.744;9.162;2023-02-02T13:42:37;96953.56;;;7.10;100.00
11198;BME280;5655;48.744;9.162;2023-02-02T13:54:38;96981.19;;;7.59;100.00
11198;BME280;5655;48.744;9.162;2023-02-02T14:00:20;96992.06;;;7.33;100.00
11198;BME280;5655;48.744;9.162;2023-02-02T14:02:50;96995.41;;;7.42;100.00
11198;BME280;5655;48.744;9.162;2023-02-02T14:05:25;96996.78;;;7.48;100.00
11198;BME280;5655;48.744;9.162;2023-02-02T14:08:04;97000.44;;;7.44;100.00
11198;BME280;5655;48.744;9.162;2023-02-02T14:10:35;96993.44;;;7.18;100.00
11198;BME280;5655;48.744;9.162;2023-02-02T14:13:07;96992.50;;;7.35;100.00
11198;BME280;5655;48.744;9.162;2023-02-02T14:15:54;96981.63;;;7.28;100.00
11198;BME280;5655;48.744;9.162;2023-02-02T14:23:58;96997.97;;;7.18;100.00
11198;BME280;5655;48.744;9.162;2023-02-02T14:34:58;97009.19;;;7.44;100.00
11198;BME280;5655;48.744;9.162;2023-02-02T14:45:36;97011.81;;;7.32;100.00
11198;BME280;5655;48.744;9.162;2023-02-02T14:50:33;97010.19;;;7.19;100.00
11198;BME280;5655;48.744;9.162;2023-02-02T14:58:28;97014.06;;;7.63;100.00
11198;BME280;5655;48.744;9.162;2023-02-02T15:01:02;97020.22;;;7.75;100.00
11198;BME280;5655;48.744;9.162;2023-02-02T15:17:11;97015.47;;;7.60;100.00
11198;BME280;5655;48.744;9.162;2023-02-02T15:19:44;97023.66;;;7.76;100.00
11198;BME280;5655;48.744;9.162;2023-02-02T15:24:52;97019.25;;;7.59;100.00
11198;BME280;5655;48.744;9.162;2023-02-02T15:27:19;97027.25;;;7.59;100.00
11198;BME280;5655;48.744;9.162;2023-02-02T15:29:51;97040.63;;;7.71;100.00
11198;BME280;5655;48.744;9.162;2023-02-02T15:32:21;97027.59;;;7.58;100.00
11198;BME280;5655;48.744;9.162;2023-02-02T15:34:51;97037.97;;;7.51;100.00
11198;BME280;5655;48.744;9.162;2023-02-02T15:37:22;97042.41;;;7.67;100.00
11198;BME280;5655;48.744;9.162;2023-02-02T15:39:52;97037.84;;;7.47;100.00
11198;BME280;5655;48.744;9.162;2023-02-02T15:45:33;97041.94;;;7.65;100.00
11198;BME280;5655;48.744;9.162;2023-02-02T15:48:08;97052.53;;;7.53;100.00
11198;BME280;5655;48.744;9.162;2023-02-02T15:50:43;97051.22;;;7.59;100.00
11198;BME280;5655;48.744;9.162;2023-02-02T15:53:15;97052.91;;;7.43;100.00
11198;BME280;5655;48.744;9.162;2023-02-02T15:55:42;97061.50;;;7.49;100.00